sensor_id;sensor_type;location;lat;lon;timestamp;temperature;humidity
26655;DHT22;14278;50.784;4.630;2024-01-25T00:01:24;10.30;99.90
26655;DHT22;14278;50.784;4.630;2024-01-25T00:03:50;10.20;99.90
26655;DHT22;14278;50.784;4.630;2024-01-25T00:06:15;10.10;99.90
26655;DHT22;14278;50.784;4.630;2024-01-25T00:08:41;10.50;99.90
26655;DHT22;14278;50.784;4.630;2024-01-25T00:11:09;10.30;99.90
26655;DHT22;14278;50.784;4.630;2024-01-25T00:13:35;10.10;99.90
26655;DHT22;14278;50.784;4.630;2024-01-25T00:16:03;10.10;99.90
26655;DHT22;14278;50.784;4.630;2024-01-25T00:18:29;10.30;99.90
26655;DHT22;14278;50.784;4.630;2024-01-25T00:20:55;10.10;99.90
26655;DHT22;14278;50.784;4.630;2024-01-25T00:23:21;10.20;99.90
26655;DHT22;14278;50.784;4.630;2024-01-25T00:25:46;10.30;99.90
26655;DHT22;14278;50.784;4.630;2024-01-25T00:28:12;10.00;99.90
26655;DHT22;14278;50.784;4.630;2024-01-25T00:30:39;9.70;99.90
26655;DHT22;14278;50.784;4.630;2024-01-25T00:33:04;9.60;99.90
26655;DHT22;14278;50.784;4.630;2024-01-25T00:35:31;9.50;99.90
26655;DHT22;14278;50.784;4.630;2024-01-25T00:37:57;9.50;99.90
26655;DHT22;14278;50.784;4.630;2024-01-25T00:40:23;9.50;99.90
26655;DHT22;14278;50.784;4.630;2024-01-25T00:42:49;9.60;99.90
26655;DHT22;14278;50.784;4.630;2024-01-25T00:45:22;9.80;99.90
26655;DHT22;14278;50.784;4.630;2024-01-25T00:47:50;9.70;99.90
26655;DHT22;14278;50.784;4.630;2024-01-25T00:50:16;9.70;99.90
26655;DHT22;14278;50.784;4.630;2024-01-25T00:52:46;9.50;99.90
26655;DHT22;14278;50.784;4.630;2024-01-25T00:55:15;9.50;99.90
26655;DHT22;14278;50.784;4.630;2024-01-25T00:57:41;9.50;99.90
26655;DHT22;14278;50.784;4.630;2024-01-25T01:00:07;9.50;99.90
26655;DHT22;14278;50.784;4.630;2024-01-25T01:02:36;9.50;99.90
26655;DHT22;14278;50.784;4.630;2024-01-25T01:05:04;9.30;99.90
26655;DHT22;14278;50.784;4.630;2024-01-25T01:07:30;9.20;99.90
26655;DHT22;14278;50.784;4.630;2024-01-25T01:09:56;9.30;99.90
26655;DHT22;14278;50.784;4.630;2024-01-25T01:12:22;9.30;99.90
26655;DHT22;14278;50.784;4.630;2024-01-25T01:14:47;9.30;99.90
26655;DHT22;14278;50.784;4.630;2024-01-25T01:17:13;9.00;99.90
26655;DHT22;14278;50.784;4.630;2024-01-25T01:19:39;8.90;99.90
26655;DHT22;14278;50.784;4.630;2024-01-25T01:22:05;8.80;99.90
26655;DHT22;14278;50.784;4.630;2024-01-25T01:24:30;8.70;99.90
26655;DHT22;14278;50.784;4.630;2024-01-25T01:26:56;8.90;99.90
26655;DHT22;14278;50.784;4.630;2024-01-25T01:29:22;8.80;99.90
26655;DHT22;14278;50.784;4.630;2024-01-25T01:31:47;8.90;99.90
26655;DHT22;14278;50.784;4.630;2024-01-25T01:34:13;9.00;99.90
26655;DHT22;14278;50.784;4.630;2024-01-25T01:36:39;9.20;99.90
26655;DHT22;14278;50.784;4.630;2024-01-25T01:39:05;9.10;99.90
26655;DHT22;14278;50.784;4.630;2024-01-25T01:41:31;9.10;99.90
26655;DHT22;14278;50.784;4.630;2024-01-25T01:43:57;9.00;99.90
26655;DHT22;14278;50.784;4.630;2024-01-25T01:46:37;8.80;99.90
26655;DHT22;14278;50.784;4.630;2024-01-25T01:49:14;8.90;99.90
26655;DHT22;14278;50.784;4.630;2024-01-25T01:51:41;8.90;99.90
26655;DHT22;14278;50.784;4.630;2024-01-25T01:54:10;8.70;99.90
26655;DHT22;14278;50.784;4.630;2024-01-25T01:56:36;8.80;99.90
26655;DHT22;14278;50.784;4.630;2024-01-25T01:59:04;9.00;99.90
26655;DHT22;14278;50.784;4.630;2024-01-25T02:01:31;8.70;99.90
26655;DHT22;14278;50.784;4.630;2024-01-25T02:03:56;8.70;99.90
26655;DHT22;14278;50.784;4.630;2024-01-25T02:06:23;8.70;99.90
26655;DHT22;14278;50.784;4.630;2024-01-25T02:08:50;8.70;99.90
26655;DHT22;14278;50.784;4.630;2024-01-25T02:11:17;8.70;99.90
26655;DHT22;14278;50.784;4.630;2024-01-25T02:13:43;9.00;99.90
26655;DHT22;14278;50.784;4.630;2024-01-25T02:16:09;8.90;99.90
26655;DHT22;14278;50.784;4.630;2024-01-25T02:18:35;8.60;99.90
26655;DHT22;14278;50.784;4.630;2024-01-25T02:21:01;8.70;99.90
26655;DHT22;14278;50.784;4.630;2024-01-25T02:23:26;8.60;99.90
26655;DHT22;14278;50.784;4.630;2024-01-25T02:25:52;8.60;99.90
26655;DHT22;14278;50.784;4.630;2024-01-25T02:28:18;8.60;99.90
26655;DHT22;14278;50.784;4.630;2024-01-25T02:30:44;8.40;99.90
26655;DHT22;14278;50.784;4.630;2024-01-25T02:33:10;8.20;99.90
26655;DHT22;14278;50.784;4.630;2024-01-25T02:35:36;8.20;99.90
26655;DHT22;14278;50.784;4.630;2024-01-25T02:38:02;8.20;99.90
26655;DHT22;14278;50.784;4.630;2024-01-25T02:40:28;8.10;99.90
26655;DHT22;14278;50.784;4.630;2024-01-25T02:42:53;8.20;99.90
26655;DHT22;14278;50.784;4.630;2024-01-25T02:45:19;8.10;99.90
26655;DHT22;14278;50.784;4.630;2024-01-25T02:47:45;7.90;99.90
26655;DHT22;14278;50.784;4.630;2024-01-25T02:50:10;7.90;99.90
26655;DHT22;14278;50.784;4.630;2024-01-25T02:52:36;8.10;99.90
26655;DHT22;14278;50.784;4.630;2024-01-25T02:55:05;8.00;99.90
26655;DHT22;14278;50.784;4.630;2024-01-25T02:57:31;8.00;99.90
26655;DHT22;14278;50.784;4.630;2024-01-25T03:00:00;8.20;99.90
26655;DHT22;14278;50.784;4.630;2024-01-25T03:02:26;8.00;99.90
26655;DHT22;14278;50.784;4.630;2024-01-25T03:04:51;8.00;99.90
26655;DHT22;14278;50.784;4.630;2024-01-25T03:07:32;7.90;99.90
26655;DHT22;14278;50.784;4.630;2024-01-25T03:10:20;8.10;99.90
26655;DHT22;14278;50.784;4.630;2024-01-25T03:12:47;8.20;99.90
26655;DHT22;14278;50.784;4.630;2024-01-25T03:15:14;8.00;99.90
26655;DHT22;14278;50.784;4.630;2024-01-25T03:17:40;8.60;99.90
26655;DHT22;14278;50.784;4.630;2024-01-25T03:20:06;8.40;99.90
26655;DHT22;14278;50.784;4.630;2024-01-25T03:22:32;8.00;99.90
26655;DHT22;14278;50.784;4.630;2024-01-25T03:24:58;8.00;99.90
26655;DHT22;14278;50.784;4.630;2024-01-25T03:27:24;7.70;99.90
26655;DHT22;14278;50.784;4.630;2024-01-25T03:29:51;7.70;99.90
26655;DHT22;14278;50.784;4.630;2024-01-25T03:32:16;7.60;99.90
26655;DHT22;14278;50.784;4.630;2024-01-25T03:34:42;7.60;99.90
26655;DHT22;14278;50.784;4.630;2024-01-25T03:37:08;7.80;99.90
26655;DHT22;14278;50.784;4.630;2024-01-25T03:39:34;7.60;99.90
26655;DHT22;14278;50.784;4.630;2024-01-25T03:42:00;7.70;99.90
26655;DHT22;14278;50.784;4.630;2024-01-25T03:44:33;7.60;99.90
26655;DHT22;14278;50.784;4.630;2024-01-25T03:47:19;7.70;99.90
26655;DHT22;14278;50.784;4.630;2024-01-25T03:49:45;7.50;99.90
26655;DHT22;14278;50.784;4.630;2024-01-25T03:52:11;7.40;99.90
26655;DHT22;14278;50.784;4.630;2024-01-25T03:54:36;7.40;99.90
26655;DHT22;14278;50.784;4.630;2024-01-25T03:57:04;7.50;99.90
26655;DHT22;14278;50.784;4.630;2024-01-25T03:59:29;7.50;99.90
26655;DHT22;14278;50.784;4.630;2024-01-25T04:01:56;7.50;99.90
26655;DHT22;14278;50.784;4.630;2024-01-25T04:04:22;7.50;99.90
26655;DHT22;14278;50.784;4.630;2024-01-25T04:06:48;7.70;99.90
26655;DHT22;14278;50.784;4.630;2024-01-25T04:09:14;7.90;99.90
26655;DHT22;14278;50.784;4.630;2024-01-25T04:11:41;7.70;99.90
26655;DHT22;14278;50.784;4.630;2024-01-25T04:14:06;7.90;99.90
26655;DHT22;14278;50.784;4.630;2024-01-25T04:16:33;7.70;99.90
26655;DHT22;14278;50.784;4.630;2024-01-25T04:18:59;7.50;99.90
26655;DHT22;14278;50.784;4.630;2024-01-25T04:21:24;7.70;99.90
26655;DHT22;14278;50.784;4.630;2024-01-25T04:23:50;7.90;99.90
26655;DHT22;14278;50.784;4.630;2024-01-25T04:26:16;8.00;99.90
26655;DHT22;14278;50.784;4.630;2024-01-25T04:28:42;7.90;99.90
26655;DHT22;14278;50.784;4.630;2024-01-25T04:31:08;7.80;99.90
26655;DHT22;14278;50.784;4.630;2024-01-25T04:33:34;7.90;99.90
26655;DHT22;14278;50.784;4.630;2024-01-25T04:36:00;7.60;99.90
26655;DHT22;14278;50.784;4.630;2024-01-25T04:38:25;7.30;99.90
26655;DHT22;14278;50.784;4.630;2024-01-25T04:40:54;7.30;99.90
26655;DHT22;14278;50.784;4.630;2024-01-25T04:43:20;7.30;99.90
26655;DHT22;14278;50.784;4.630;2024-01-25T04:45:45;7.20;99.90
26655;DHT22;14278;50.784;4.630;2024-01-25T04:48:11;7.60;99.90
26655;DHT22;14278;50.784;4.630;2024-01-25T04:50:37;7.50;99.90
26655;DHT22;14278;50.784;4.630;2024-01-25T04:53:04;7.40;99.90
26655;DHT22;14278;50.784;4.630;2024-01-25T04:55:30;8.00;99.90
26655;DHT22;14278;50.784;4.630;2024-01-25T04:57:56;8.70;99.90
26655;DHT22;14278;50.784;4.630;2024-01-25T05:00:22;8.80;99.90
26655;DHT22;14278;50.784;4.630;2024-01-25T05:02:49;8.60;99.90
26655;DHT22;14278;50.784;4.630;2024-01-25T05:05:14;8.00;99.90
26655;DHT22;14278;50.784;4.630;2024-01-25T05:07:40;7.90;99.90
26655;DHT22;14278;50.784;4.630;2024-01-25T05:10:06;7.70;99.90
26655;DHT22;14278;50.784;4.630;2024-01-25T05:12:33;7.20;99.90
26655;DHT22;14278;50.784;4.630;2024-01-25T05:14:59;7.10;99.90
26655;DHT22;14278;50.784;4.630;2024-01-25T05:17:24;7.10;99.90
26655;DHT22;14278;50.784;4.630;2024-01-25T05:19:50;6.90;99.90
26655;DHT22;14278;50.784;4.630;2024-01-25T05:22:16;7.10;99.90
26655;DHT22;14278;50.784;4.630;2024-01-25T05:24:45;7.50;99.90
26655;DHT22;14278;50.784;4.630;2024-01-25T05:27:12;7.70;99.90
26655;DHT22;14278;50.784;4.630;2024-01-25T05:29:37;7.70;99.90
26655;DHT22;14278;50.784;4.630;2024-01-25T05:32:03;7.60;99.90
26655;DHT22;14278;50.784;4.630;2024-01-25T05:34:29;7.30;99.90
26655;DHT22;14278;50.784;4.630;2024-01-25T05:36:55;7.60;99.90
26655;DHT22;14278;50.784;4.630;2024-01-25T05:39:20;7.50;99.90
26655;DHT22;14278;50.784;4.630;2024-01-25T05:41:46;7.20;99.90
26655;DHT22;14278;50.784;4.630;2024-01-25T05:44:13;7.20;99.90
26655;DHT22;14278;50.784;4.630;2024-01-25T05:46:38;7.10;99.90
26655;DHT22;14278;50.784;4.630;2024-01-25T05:49:04;7.10;99.90
26655;DHT22;14278;50.784;4.630;2024-01-25T05:51:30;7.00;99.90
26655;DHT22;14278;50.784;4.630;2024-01-25T05:53:55;7.00;99.90
26655;DHT22;14278;50.784;4.630;2024-01-25T05:56:21;7.10;99.90
26655;DHT22;14278;50.784;4.630;2024-01-25T05:58:47;7.40;99.90
26655;DHT22;14278;50.784;4.630;2024-01-25T06:01:13;7.80;99.90
26655;DHT22;14278;50.784;4.630;2024-01-25T06:03:38;8.10;99.90
26655;DHT22;14278;50.784;4.630;2024-01-25T06:06:04;8.10;99.90
26655;DHT22;14278;50.784;4.630;2024-01-25T06:08:30;7.10;99.90
26655;DHT22;14278;50.784;4.630;2024-01-25T06:10:55;6.80;99.90
26655;DHT22;14278;50.784;4.630;2024-01-25T06:13:21;7.10;99.90
26655;DHT22;14278;50.784;4.630;2024-01-25T06:15:47;7.00;99.90
26655;DHT22;14278;50.784;4.630;2024-01-25T06:18:13;7.20;99.90
26655;DHT22;14278;50.784;4.630;2024-01-25T06:20:38;7.10;99.90
26655;DHT22;14278;50.784;4.630;2024-01-25T06:23:04;7.80;99.90
26655;DHT22;14278;50.784;4.630;2024-01-25T06:25:30;8.10;99.90
26655;DHT22;14278;50.784;4.630;2024-01-25T06:27:57;8.00;99.90
26655;DHT22;14278;50.784;4.630;2024-01-25T06:30:23;8.20;99.90
26655;DHT22;14278;50.784;4.630;2024-01-25T06:33:09;8.40;99.90
26655;DHT22;14278;50.784;4.630;2024-01-25T06:35:35;8.00;99.90
26655;DHT22;14278;50.784;4.630;2024-01-25T06:38:00;7.70;99.90
26655;DHT22;14278;50.784;4.630;2024-01-25T06:40:26;7.60;99.90
26655;DHT22;14278;50.784;4.630;2024-01-25T06:42:52;7.50;99.90
26655;DHT22;14278;50.784;4.630;2024-01-25T06:45:17;7.20;99.90
26655;DHT22;14278;50.784;4.630;2024-01-25T06:47:43;7.20;99.90
26655;DHT22;14278;50.784;4.630;2024-01-25T06:50:09;7.20;99.90
26655;DHT22;14278;50.784;4.630;2024-01-25T06:52:34;7.30;99.90
26655;DHT22;14278;50.784;4.630;2024-01-25T06:55:00;7.30;99.90
26655;DHT22;14278;50.784;4.630;2024-01-25T06:57:26;7.70;99.90
26655;DHT22;14278;50.784;4.630;2024-01-25T06:59:52;7.90;99.90
26655;DHT22;14278;50.784;4.630;2024-01-25T07:02:19;8.30;99.90
26655;DHT22;14278;50.784;4.630;2024-01-25T07:04:45;8.50;99.90
26655;DHT22;14278;50.784;4.630;2024-01-25T07:07:11;9.00;99.90
26655;DHT22;14278;50.784;4.630;2024-01-25T07:09:36;8.70;99.90
26655;DHT22;14278;50.784;4.630;2024-01-25T07:12:02;8.90;99.90
26655;DHT22;14278;50.784;4.630;2024-01-25T07:17:09;8.40;99.90
26655;DHT22;14278;50.784;4.630;2024-01-25T07:19:35;7.80;99.90
26655;DHT22;14278;50.784;4.630;2024-01-25T07:22:01;7.90;99.90
26655;DHT22;14278;50.784;4.630;2024-01-25T07:24:27;8.00;99.90
26655;DHT22;14278;50.784;4.630;2024-01-25T07:26:52;8.50;99.90
26655;DHT22;14278;50.784;4.630;2024-01-25T07:29:18;8.60;99.90
26655;DHT22;14278;50.784;4.630;2024-01-25T07:31:44;8.80;99.90
26655;DHT22;14278;50.784;4.630;2024-01-25T07:34:10;8.70;99.90
26655;DHT22;14278;50.784;4.630;2024-01-25T07:39:11;8.50;99.90
26655;DHT22;14278;50.784;4.630;2024-01-25T07:41:37;8.50;99.90
26655;DHT22;14278;50.784;4.630;2024-01-25T07:44:03;8.10;99.90
26655;DHT22;14278;50.784;4.630;2024-01-25T07:46:28;8.50;99.90
26655;DHT22;14278;50.784;4.630;2024-01-25T07:48:54;8.60;99.90
26655;DHT22;14278;50.784;4.630;2024-01-25T07:51:20;8.90;99.90
26655;DHT22;14278;50.784;4.630;2024-01-25T07:53:46;9.00;99.90
26655;DHT22;14278;50.784;4.630;2024-01-25T07:56:12;9.00;99.90
26655;DHT22;14278;50.784;4.630;2024-01-25T07:58:37;9.00;99.90
26655;DHT22;14278;50.784;4.630;2024-01-25T08:01:04;8.90;99.90
26655;DHT22;14278;50.784;4.630;2024-01-25T08:03:31;8.90;99.90
26655;DHT22;14278;50.784;4.630;2024-01-25T08:06:01;8.70;99.90
26655;DHT22;14278;50.784;4.630;2024-01-25T08:08:28;8.60;99.90
26655;DHT22;14278;50.784;4.630;2024-01-25T08:10:53;8.70;99.90
26655;DHT22;14278;50.784;4.630;2024-01-25T08:13:19;8.50;99.90
26655;DHT22;14278;50.784;4.630;2024-01-25T08:15:45;8.50;99.90
26655;DHT22;14278;50.784;4.630;2024-01-25T08:18:11;8.40;99.90
26655;DHT22;14278;50.784;4.630;2024-01-25T08:20:39;8.50;99.90
26655;DHT22;14278;50.784;4.630;2024-01-25T08:23:06;8.40;99.90
26655;DHT22;14278;50.784;4.630;2024-01-25T08:25:34;8.60;99.90
26655;DHT22;14278;50.784;4.630;2024-01-25T08:27:59;8.40;99.90
26655;DHT22;14278;50.784;4.630;2024-01-25T08:30:25;8.50;99.90
26655;DHT22;14278;50.784;4.630;2024-01-25T08:32:51;8.80;99.90
26655;DHT22;14278;50.784;4.630;2024-01-25T08:35:17;8.90;99.90
26655;DHT22;14278;50.784;4.630;2024-01-25T08:37:43;8.80;99.90
26655;DHT22;14278;50.784;4.630;2024-01-25T08:40:09;9.10;99.90
26655;DHT22;14278;50.784;4.630;2024-01-25T08:42:36;9.30;99.90
26655;DHT22;14278;50.784;4.630;2024-01-25T08:45:02;9.40;99.90
26655;DHT22;14278;50.784;4.630;2024-01-25T08:47:27;9.40;99.90
26655;DHT22;14278;50.784;4.630;2024-01-25T08:49:53;9.40;99.90
26655;DHT22;14278;50.784;4.630;2024-01-25T08:52:19;9.70;99.90
26655;DHT22;14278;50.784;4.630;2024-01-25T08:54:44;9.80;99.90
26655;DHT22;14278;50.784;4.630;2024-01-25T08:57:10;9.70;99.90
26655;DHT22;14278;50.784;4.630;2024-01-25T08:59:36;9.80;99.90
26655;DHT22;14278;50.784;4.630;2024-01-25T09:02:04;9.50;99.90
26655;DHT22;14278;50.784;4.630;2024-01-25T09:04:31;9.60;99.90
26655;DHT22;14278;50.784;4.630;2024-01-25T09:06:57;9.40;99.90
26655;DHT22;14278;50.784;4.630;2024-01-25T09:09:23;9.40;99.90
26655;DHT22;14278;50.784;4.630;2024-01-25T09:11:49;9.30;99.90
26655;DHT22;14278;50.784;4.630;2024-01-25T09:14:15;9.60;99.90
26655;DHT22;14278;50.784;4.630;2024-01-25T09:16:40;9.40;99.90
26655;DHT22;14278;50.784;4.630;2024-01-25T09:19:06;9.20;99.90
26655;DHT22;14278;50.784;4.630;2024-01-25T09:21:38;9.40;99.90
26655;DHT22;14278;50.784;4.630;2024-01-25T09:24:04;9.70;99.90
26655;DHT22;14278;50.784;4.630;2024-01-25T09:26:30;9.80;99.90
26655;DHT22;14278;50.784;4.630;2024-01-25T09:28:55;9.80;99.90
26655;DHT22;14278;50.784;4.630;2024-01-25T09:31:21;9.80;99.90
26655;DHT22;14278;50.784;4.630;2024-01-25T09:33:47;9.70;99.90
26655;DHT22;14278;50.784;4.630;2024-01-25T09:36:12;9.80;99.90
26655;DHT22;14278;50.784;4.630;2024-01-25T09:38:38;9.60;99.90
26655;DHT22;14278;50.784;4.630;2024-01-25T09:41:04;9.50;99.90
26655;DHT22;14278;50.784;4.630;2024-01-25T09:43:30;9.80;99.90
26655;DHT22;14278;50.784;4.630;2024-01-25T09:45:56;9.90;99.90
26655;DHT22;14278;50.784;4.630;2024-01-25T09:48:22;9.80;99.90
26655;DHT22;14278;50.784;4.630;2024-01-25T09:50:48;9.70;99.90
26655;DHT22;14278;50.784;4.630;2024-01-25T09:53:23;9.90;99.90
26655;DHT22;14278;50.784;4.630;2024-01-25T09:58:24;10.10;99.90
26655;DHT22;14278;50.784;4.630;2024-01-25T10:00:50;10.20;99.90
26655;DHT22;14278;50.784;4.630;2024-01-25T10:03:16;9.90;99.90
26655;DHT22;14278;50.784;4.630;2024-01-25T10:05:42;10.10;99.90
26655;DHT22;14278;50.784;4.630;2024-01-25T10:08:12;10.30;99.90
26655;DHT22;14278;50.784;4.630;2024-01-25T10:10:38;10.50;99.90
26655;DHT22;14278;50.784;4.630;2024-01-25T10:13:04;10.60;99.90
26655;DHT22;14278;50.784;4.630;2024-01-25T10:15:31;10.70;99.90
26655;DHT22;14278;50.784;4.630;2024-01-25T10:17:57;10.50;99.90
26655;DHT22;14278;50.784;4.630;2024-01-25T10:20:23;10.60;99.90
26655;DHT22;14278;50.784;4.630;2024-01-25T10:22:51;10.40;99.90
26655;DHT22;14278;50.784;4.630;2024-01-25T10:25:17;10.40;99.90
26655;DHT22;14278;50.784;4.630;2024-01-25T10:27:43;10.40;99.90
26655;DHT22;14278;50.784;4.630;2024-01-25T10:30:10;10.50;99.90
26655;DHT22;14278;50.784;4.630;2024-01-25T10:32:37;10.30;99.90
26655;DHT22;14278;50.784;4.630;2024-01-25T10:35:03;10.30;99.90
26655;DHT22;14278;50.784;4.630;2024-01-25T10:37:30;10.60;99.90
26655;DHT22;14278;50.784;4.630;2024-01-25T10:39:57;10.80;99.90
26655;DHT22;14278;50.784;4.630;2024-01-25T10:42:23;11.00;99.90
26655;DHT22;14278;50.784;4.630;2024-01-25T10:44:49;11.10;99.90
26655;DHT22;14278;50.784;4.630;2024-01-25T10:47:15;11.10;99.90
26655;DHT22;14278;50.784;4.630;2024-01-25T10:49:41;10.90;99.90
26655;DHT22;14278;50.784;4.630;2024-01-25T10:52:07;10.60;99.90
26655;DHT22;14278;50.784;4.630;2024-01-25T10:54:33;10.70;99.90
26655;DHT22;14278;50.784;4.630;2024-01-25T10:56:59;10.80;99.90
26655;DHT22;14278;50.784;4.630;2024-01-25T10:59:25;11.00;99.90
26655;DHT22;14278;50.784;4.630;2024-01-25T11:01:54;11.00;99.90
26655;DHT22;14278;50.784;4.630;2024-01-25T11:04:20;11.00;99.90
26655;DHT22;14278;50.784;4.630;2024-01-25T11:06:46;11.20;99.90
26655;DHT22;14278;50.784;4.630;2024-01-25T11:09:19;10.90;99.90
26655;DHT22;14278;50.784;4.630;2024-01-25T11:11:47;11.10;99.90
26655;DHT22;14278;50.784;4.630;2024-01-25T11:14:16;11.00;99.90
26655;DHT22;14278;50.784;4.630;2024-01-25T11:16:43;11.00;99.90
26655;DHT22;14278;50.784;4.630;2024-01-25T11:19:22;11.20;99.90
26655;DHT22;14278;50.784;4.630;2024-01-25T11:21:52;11.20;99.90
26655;DHT22;14278;50.784;4.630;2024-01-25T11:24:24;11.20;99.90
26655;DHT22;14278;50.784;4.630;2024-01-25T11:26:54;11.20;99.90
26655;DHT22;14278;50.784;4.630;2024-01-25T11:29:21;11.50;99.90
26655;DHT22;14278;50.784;4.630;2024-01-25T11:31:49;11.70;99.90
26655;DHT22;14278;50.784;4.630;2024-01-25T11:34:15;11.50;99.90
26655;DHT22;14278;50.784;4.630;2024-01-25T11:36:42;11.40;99.90
26655;DHT22;14278;50.784;4.630;2024-01-25T11:39:11;11.50;99.90
26655;DHT22;14278;50.784;4.630;2024-01-25T11:41:44;11.50;99.90
26655;DHT22;14278;50.784;4.630;2024-01-25T11:44:11;11.70;99.90
26655;DHT22;14278;50.784;4.630;2024-01-25T11:46:37;11.60;99.90
26655;DHT22;14278;50.784;4.630;2024-01-25T11:49:02;11.70;99.90
26655;DHT22;14278;50.784;4.630;2024-01-25T11:51:28;11.70;99.90
26655;DHT22;14278;50.784;4.630;2024-01-25T11:53:54;11.80;99.90
26655;DHT22;14278;50.784;4.630;2024-01-25T11:56:30;12.10;99.90
26655;DHT22;14278;50.784;4.630;2024-01-25T11:58:56;12.20;99.90
26655;DHT22;14278;50.784;4.630;2024-01-25T12:01:26;12.00;99.90
26655;DHT22;14278;50.784;4.630;2024-01-25T12:03:53;12.10;99.90
26655;DHT22;14278;50.784;4.630;2024-01-25T12:06:19;11.90;99.90
26655;DHT22;14278;50.784;4.630;2024-01-25T12:08:45;11.90;99.90
26655;DHT22;14278;50.784;4.630;2024-01-25T12:11:16;12.20;99.90
26655;DHT22;14278;50.784;4.630;2024-01-25T12:13:44;12.20;99.90
26655;DHT22;14278;50.784;4.630;2024-01-25T12:16:11;12.20;99.90
26655;DHT22;14278;50.784;4.630;2024-01-25T12:18:42;12.60;99.90
26655;DHT22;14278;50.784;4.630;2024-01-25T12:21:08;12.60;99.90
26655;DHT22;14278;50.784;4.630;2024-01-25T12:23:36;12.40;99.90
26655;DHT22;14278;50.784;4.630;2024-01-25T12:26:04;12.20;99.90
26655;DHT22;14278;50.784;4.630;2024-01-25T12:28:30;12.00;99.90
26655;DHT22;14278;50.784;4.630;2024-01-25T12:31:01;12.20;99.90
26655;DHT22;14278;50.784;4.630;2024-01-25T12:33:27;12.10;99.90
26655;DHT22;14278;50.784;4.630;2024-01-25T12:35:53;12.00;99.90
26655;DHT22;14278;50.784;4.630;2024-01-25T12:38:22;12.00;99.90
26655;DHT22;14278;50.784;4.630;2024-01-25T12:40:48;11.80;99.90
26655;DHT22;14278;50.784;4.630;2024-01-25T12:43:15;12.10;99.90
26655;DHT22;14278;50.784;4.630;2024-01-25T12:45:41;12.00;99.90
26655;DHT22;14278;50.784;4.630;2024-01-25T12:48:08;12.10;99.90
26655;DHT22;14278;50.784;4.630;2024-01-25T12:50:34;11.90;99.90
26655;DHT22;14278;50.784;4.630;2024-01-25T12:53:01;12.10;99.90
26655;DHT22;14278;50.784;4.630;2024-01-25T12:55:28;12.20;99.90
26655;DHT22;14278;50.784;4.630;2024-01-25T12:57:54;12.10;99.90
26655;DHT22;14278;50.784;4.630;2024-01-25T13:00:21;11.80;99.90
26655;DHT22;14278;50.784;4.630;2024-01-25T13:02:47;11.90;99.90
26655;DHT22;14278;50.784;4.630;2024-01-25T13:05:13;11.80;99.90
26655;DHT22;14278;50.784;4.630;2024-01-25T13:07:39;12.00;99.90
26655;DHT22;14278;50.784;4.630;2024-01-25T13:10:05;11.90;99.90
26655;DHT22;14278;50.784;4.630;2024-01-25T13:12:34;11.70;99.90
26655;DHT22;14278;50.784;4.630;2024-01-25T13:15:00;11.90;99.90
26655;DHT22;14278;50.784;4.630;2024-01-25T13:17:25;11.90;99.90
26655;DHT22;14278;50.784;4.630;2024-01-25T13:19:53;11.90;99.90
26655;DHT22;14278;50.784;4.630;2024-01-25T13:22:18;11.90;99.90
26655;DHT22;14278;50.784;4.630;2024-01-25T13:24:46;12.10;99.90
26655;DHT22;14278;50.784;4.630;2024-01-25T13:27:12;12.10;99.90
26655;DHT22;14278;50.784;4.630;2024-01-25T13:29:38;12.20;99.90
26655;DHT22;14278;50.784;4.630;2024-01-25T13:32:03;12.30;99.90
26655;DHT22;14278;50.784;4.630;2024-01-25T13:34:29;12.30;99.90
26655;DHT22;14278;50.784;4.630;2024-01-25T13:36:55;12.20;99.90
26655;DHT22;14278;50.784;4.630;2024-01-25T13:39:20;12.20;99.90
26655;DHT22;14278;50.784;4.630;2024-01-25T13:41:47;12.20;99.90
26655;DHT22;14278;50.784;4.630;2024-01-25T13:44:14;12.20;99.90
26655;DHT22;14278;50.784;4.630;2024-01-25T13:46:40;12.20;99.90
26655;DHT22;14278;50.784;4.630;2024-01-25T13:49:05;12.40;99.90
26655;DHT22;14278;50.784;4.630;2024-01-25T13:51:31;12.50;99.90
26655;DHT22;14278;50.784;4.630;2024-01-25T13:53:57;12.40;99.90
26655;DHT22;14278;50.784;4.630;2024-01-25T13:56:22;12.50;99.90
26655;DHT22;14278;50.784;4.630;2024-01-25T13:58:48;12.90;99.90
26655;DHT22;14278;50.784;4.630;2024-01-25T14:01:14;12.50;99.90
26655;DHT22;14278;50.784;4.630;2024-01-25T14:03:39;12.40;99.90
26655;DHT22;14278;50.784;4.630;2024-01-25T14:06:05;12.70;99.90
26655;DHT22;14278;50.784;4.630;2024-01-25T14:08:35;12.50;99.90
26655;DHT22;14278;50.784;4.630;2024-01-25T14:11:01;12.70;99.90
26655;DHT22;14278;50.784;4.630;2024-01-25T14:13:26;12.40;99.90
26655;DHT22;14278;50.784;4.630;2024-01-25T14:15:52;11.90;99.90
26655;DHT22;14278;50.784;4.630;2024-01-25T14:18:18;12.10;99.90
26655;DHT22;14278;50.784;4.630;2024-01-25T14:20:43;12.10;99.90
26655;DHT22;14278;50.784;4.630;2024-01-25T14:23:09;12.20;99.90
26655;DHT22;14278;50.784;4.630;2024-01-25T14:25:35;12.30;99.90
26655;DHT22;14278;50.784;4.630;2024-01-25T14:28:00;12.60;99.90
26655;DHT22;14278;50.784;4.630;2024-01-25T14:30:26;12.80;99.90
26655;DHT22;14278;50.784;4.630;2024-01-25T14:32:52;12.70;99.90
26655;DHT22;14278;50.784;4.630;2024-01-25T14:35:17;12.60;99.90
26655;DHT22;14278;50.784;4.630;2024-01-25T14:37:44;12.30;99.90
26655;DHT22;14278;50.784;4.630;2024-01-25T14:40:10;11.70;99.90
26655;DHT22;14278;50.784;4.630;2024-01-25T14:42:36;12.00;99.90
26655;DHT22;14278;50.784;4.630;2024-01-25T14:45:04;12.00;99.90
26655;DHT22;14278;50.784;4.630;2024-01-25T14:47:30;12.10;99.90
26655;DHT22;14278;50.784;4.630;2024-01-25T14:49:58;12.20;99.90
26655;DHT22;14278;50.784;4.630;2024-01-25T14:52:24;12.20;99.90
26655;DHT22;14278;50.784;4.630;2024-01-25T14:54:50;11.70;99.90
26655;DHT22;14278;50.784;4.630;2024-01-25T14:57:15;12.00;99.90
26655;DHT22;14278;50.784;4.630;2024-01-25T14:59:41;11.80;99.90
26655;DHT22;14278;50.784;4.630;2024-01-25T15:02:08;11.80;99.90
26655;DHT22;14278;50.784;4.630;2024-01-25T15:04:34;12.20;99.90
26655;DHT22;14278;50.784;4.630;2024-01-25T15:06:59;12.40;99.90
26655;DHT22;14278;50.784;4.630;2024-01-25T15:09:25;12.50;99.90
26655;DHT22;14278;50.784;4.630;2024-01-25T15:11:51;12.40;99.90
26655;DHT22;14278;50.784;4.630;2024-01-25T15:14:16;12.50;99.90
26655;DHT22;14278;50.784;4.630;2024-01-25T15:16:42;12.20;99.90
26655;DHT22;14278;50.784;4.630;2024-01-25T15:19:07;11.80;99.90
26655;DHT22;14278;50.784;4.630;2024-01-25T15:21:33;11.30;99.90
26655;DHT22;14278;50.784;4.630;2024-01-25T15:23:59;11.60;99.90
26655;DHT22;14278;50.784;4.630;2024-01-25T15:26:24;11.70;99.90
26655;DHT22;14278;50.784;4.630;2024-01-25T15:28:51;11.50;99.90
26655;DHT22;14278;50.784;4.630;2024-01-25T15:31:17;11.70;99.90
26655;DHT22;14278;50.784;4.630;2024-01-25T15:33:43;11.80;99.90
26655;DHT22;14278;50.784;4.630;2024-01-25T15:36:09;11.30;99.90
26655;DHT22;14278;50.784;4.630;2024-01-25T15:38:34;11.10;99.90
26655;DHT22;14278;50.784;4.630;2024-01-25T15:41:00;11.20;99.90
26655;DHT22;14278;50.784;4.630;2024-01-25T15:43:26;11.40;99.90